createdAt,value
2019-05-18T00:02:15.783Z,25.77
2019-05-18T00:04:49.037Z,24.30
2019-05-18T00:07:22.786Z,24.72
2019-05-18T00:09:56.468Z,25.20
2019-05-18T00:12:30.623Z,24.50
2019-05-18T00:15:03.456Z,25.60
2019-05-18T00:17:37.144Z,24.27
2019-05-18T00:20:10.960Z,23.50
2019-05-18T00:22:43.738Z,24.40
2019-05-18T00:25:17.769Z,24.87
2019-05-18T00:27:50.102Z,26.50
2019-05-18T00:30:23.796Z,23.60
2019-05-18T00:32:56.919Z,23.60
2019-05-18T00:35:30.238Z,26.77
2019-05-18T00:38:03.895Z,24.85
2019-05-18T00:40:37.867Z,22.93
2019-05-18T00:43:11.570Z,23.75
2019-05-18T00:45:45.697Z,23.52
2019-05-18T00:48:19.348Z,23.98
2019-05-18T00:50:52.688Z,23.60
2019-05-18T00:53:25.448Z,24.23
2019-05-18T00:55:59.170Z,24.65
2019-05-18T00:58:33.308Z,23.20
2019-05-18T01:01:06.111Z,21.57
2019-05-18T01:03:38.981Z,21.80
2019-05-18T01:06:12.786Z,23.73
2019-05-18T01:08:45.733Z,24.55
2019-05-18T01:11:18.993Z,24.63
2019-05-18T01:13:52.639Z,24.77
2019-05-18T01:16:25.913Z,24.90
2019-05-18T01:18:59.186Z,25.17
2019-05-18T01:21:32.938Z,25.17
2019-05-18T01:24:05.903Z,24.92
2019-05-18T01:26:38.160Z,24.52
2019-05-18T01:29:11.922Z,23.32
2019-05-18T01:31:45.448Z,24.00
2019-05-18T01:34:18.797Z,23.45
2019-05-18T01:36:51.967Z,23.92
2019-05-18T01:39:24.831Z,22.50
2019-05-18T01:41:58.049Z,23.85
2019-05-18T01:44:31.342Z,23.25
2019-05-18T01:47:05.159Z,23.47
2019-05-18T01:49:38.765Z,22.75
2019-05-18T01:52:12.367Z,22.65
2019-05-18T01:54:45.283Z,23.57
2019-05-18T01:57:17.990Z,23.85
2019-05-18T01:59:51.791Z,23.80
2019-05-18T02:02:25.154Z,24.40
2019-05-18T02:04:57.894Z,24.07
2019-05-18T02:07:31.925Z,26.52
2019-05-18T02:10:05.760Z,24.57
2019-05-18T02:12:39.444Z,25.10
2019-05-18T02:15:13.270Z,24.02
2019-05-18T02:17:46.799Z,24.95
2019-05-18T02:20:20.514Z,26.27
2019-05-18T02:22:53.916Z,24.85
2019-05-18T02:25:27.702Z,23.85
2019-05-18T02:28:01.457Z,23.80
2019-05-18T02:30:35.164Z,25.17
2019-05-18T02:33:10.014Z,24.43
2019-05-18T02:35:43.621Z,23.22
2019-05-18T02:38:17.483Z,23.95
2019-05-18T02:40:51.669Z,24.10
2019-05-18T02:43:25.315Z,23.75
2019-05-18T02:45:59.015Z,22.62
2019-05-18T02:48:47.671Z,22.07
2019-05-18T02:51:11.462Z,22.42
2019-05-18T02:53:43.126Z,21.75
2019-05-18T02:56:16.912Z,24.20
2019-05-18T02:58:50.655Z,24.50
2019-05-18T03:01:23.907Z,23.42
2019-05-18T03:03:57.911Z,24.20
2019-05-18T03:06:30.681Z,24.35
2019-05-18T03:09:05.673Z,24.82
2019-05-18T03:11:39.479Z,24.25
2019-05-18T03:14:13.344Z,25.20
2019-05-18T03:16:47.010Z,25.57
2019-05-18T03:19:20.287Z,24.10
2019-05-18T03:21:53.918Z,25.23
2019-05-18T03:24:27.124Z,25.27
2019-05-18T03:27:00.814Z,26.68
2019-05-18T03:29:33.618Z,28.20
2019-05-18T03:32:06.848Z,25.48
2019-05-18T03:34:40.505Z,26.65
2019-05-18T03:37:13.924Z,24.95
2019-05-18T03:39:48.176Z,25.90
2019-05-18T03:42:21.008Z,25.32
2019-05-18T03:44:54.670Z,26.90
2019-05-18T03:47:27.511Z,26.33
2019-05-18T03:50:01.216Z,28.25
2019-05-18T03:52:34.915Z,29.20
2019-05-18T03:55:07.833Z,29.75
2019-05-18T03:57:40.720Z,30.10
2019-05-18T04:00:14.814Z,30.45
2019-05-18T04:02:48.915Z,30.82
2019-05-18T04:05:22.547Z,33.33
2019-05-18T04:07:56.867Z,34.50
2019-05-18T04:10:30.405Z,34.23
2019-05-18T04:13:04.656Z,33.10
2019-05-18T04:15:38.794Z,36.80
2019-05-18T04:18:11.658Z,34.15
2019-05-18T04:20:45.301Z,35.23
2019-05-18T04:23:18.584Z,36.05
2019-05-18T04:25:51.360Z,36.28
2019-05-18T04:28:24.928Z,37.90
2019-05-18T04:30:58.728Z,36.53
2019-05-18T04:33:32.032Z,35.98
2019-05-18T04:36:04.829Z,35.13
2019-05-18T04:38:38.243Z,34.38
2019-05-18T04:41:12.048Z,34.92
2019-05-18T04:43:45.728Z,37.00
2019-05-18T04:46:19.550Z,32.50
2019-05-18T04:48:53.748Z,31.60
2019-05-18T04:51:30.647Z,31.20
2019-05-18T04:54:03.911Z,30.50
2019-05-18T04:56:37.204Z,32.45
2019-05-18T04:59:10.528Z,29.45
2019-05-18T05:01:44.636Z,28.05
2019-05-18T05:04:17.405Z,28.02
2019-05-18T05:06:50.709Z,27.25
2019-05-18T05:09:24.577Z,25.20
2019-05-18T05:11:57.897Z,26.68
2019-05-18T05:14:30.785Z,25.52
2019-05-18T05:17:04.516Z,24.80
2019-05-18T05:19:38.835Z,25.23
2019-05-18T05:22:12.898Z,24.00
2019-05-18T05:24:46.524Z,22.77
2019-05-18T05:27:19.454Z,20.17
2019-05-18T05:29:53.729Z,19.70
2019-05-18T05:32:27.661Z,20.85
2019-05-18T05:35:01.408Z,20.35
2019-05-18T05:37:36.820Z,19.35
2019-05-18T05:40:10.417Z,18.73
2019-05-18T05:42:43.776Z,16.77
2019-05-18T05:45:17.693Z,17.57
2019-05-18T05:47:51.026Z,14.28
2019-05-18T05:50:35.393Z,15.32
2019-05-18T05:53:01.082Z,13.65
2019-05-18T05:55:34.833Z,12.93
2019-05-18T05:58:08.157Z,13.18
2019-05-18T06:00:41.756Z,14.43
2019-05-18T06:03:15.387Z,13.93
2019-05-18T06:05:48.747Z,15.08
2019-05-18T06:08:22.619Z,14.15
2019-05-18T06:10:56.242Z,13.30
2019-05-18T06:13:30.920Z,13.93
2019-05-18T06:16:04.456Z,13.05
2019-05-18T06:18:38.589Z,12.30
2019-05-18T06:21:12.349Z,12.37
2019-05-18T06:23:45.973Z,11.45
2019-05-18T06:26:19.209Z,11.10
2019-05-18T06:28:52.339Z,11.03
2019-05-18T06:31:25.496Z,11.48
2019-05-18T06:33:58.410Z,11.08
2019-05-18T06:36:31.653Z,10.68
2019-05-18T06:39:05.618Z,11.05
2019-05-18T06:41:39.295Z,11.60
2019-05-18T06:44:13.273Z,10.98
2019-05-18T06:46:46.591Z,10.82
2019-05-18T06:49:19.683Z,10.68
2019-05-18T06:51:53.810Z,10.90
2019-05-18T06:54:27.498Z,11.57
2019-05-18T06:57:02.948Z,10.75
2019-05-18T06:59:37.735Z,10.28
2019-05-18T07:02:10.830Z,10.70
2019-05-18T07:04:44.787Z,9.98
2019-05-18T07:07:18.569Z,10.65
2019-05-18T07:09:52.301Z,12.00
2019-05-18T07:12:25.255Z,11.40
2019-05-18T07:15:00.474Z,11.18
2019-05-18T07:17:34.729Z,11.78
2019-05-18T07:20:07.690Z,10.68
2019-05-18T07:22:41.059Z,9.93
2019-05-18T07:25:15.325Z,10.55
2019-05-18T07:27:48.646Z,10.28
2019-05-18T07:30:23.083Z,9.38
2019-05-18T07:32:56.887Z,9.38
2019-05-18T07:35:30.762Z,9.50
2019-05-18T07:38:04.459Z,10.28
2019-05-18T07:40:37.676Z,9.53
2019-05-18T07:43:11.529Z,9.58
2019-05-18T07:45:45.229Z,8.70
2019-05-18T07:48:19.095Z,8.95
2019-05-18T07:50:52.266Z,9.25
2019-05-18T07:53:25.961Z,9.40
2019-05-18T07:56:00.105Z,9.30
2019-05-18T07:58:34.380Z,8.85
2019-05-18T08:01:07.589Z,8.15
2019-05-18T08:03:40.677Z,8.68
2019-05-18T08:06:14.494Z,9.40
2019-05-18T08:08:48.579Z,8.78
2019-05-18T08:11:22.850Z,8.70
2019-05-18T08:13:55.833Z,8.23
2019-05-18T08:16:28.320Z,8.18
2019-05-18T08:19:01.172Z,8.00
2019-05-18T08:21:34.328Z,8.05
2019-05-18T08:24:07.319Z,8.30
2019-05-18T08:26:40.200Z,8.08
2019-05-18T08:29:14.041Z,8.38
2019-05-18T08:31:46.954Z,8.35
2019-05-18T08:34:20.730Z,8.78
2019-05-18T08:36:54.043Z,7.47
2019-05-18T08:39:26.071Z,8.30
2019-05-18T08:41:59.384Z,7.10
2019-05-18T08:44:32.214Z,7.80
2019-05-18T08:47:05.415Z,7.55
2019-05-18T08:49:38.813Z,7.15
2019-05-18T08:52:11.309Z,7.45
2019-05-18T08:54:44.167Z,7.15
2019-05-18T08:57:16.588Z,7.50
2019-05-18T08:59:49.395Z,6.60
2019-05-18T09:02:22.333Z,6.70
2019-05-18T09:04:54.632Z,7.35
2019-05-18T09:07:28.139Z,6.85
2019-05-18T09:10:00.096Z,7.28
2019-05-18T09:12:33.082Z,6.78
2019-05-18T09:15:06.268Z,7.60
2019-05-18T09:17:39.200Z,6.90
2019-05-18T09:20:12.307Z,6.60
2019-05-18T09:22:44.815Z,6.65
2019-05-18T09:25:17.567Z,6.47
2019-05-18T09:27:50.381Z,6.90
2019-05-18T09:30:22.437Z,7.05
2019-05-18T09:32:55.782Z,6.58
2019-05-18T09:35:29.907Z,6.25
2019-05-18T09:38:03.211Z,6.70
2019-05-18T09:40:36.205Z,6.58
2019-05-18T09:43:09.537Z,6.30
2019-05-18T09:45:43.943Z,6.60
2019-05-18T09:48:17.313Z,6.53
2019-05-18T09:50:51.357Z,6.35
2019-05-18T09:53:25.711Z,6.47
2019-05-18T09:55:58.879Z,6.30
2019-05-18T09:58:32.068Z,6.72
2019-05-18T10:01:05.369Z,6.87
2019-05-18T10:03:38.626Z,6.83
2019-05-18T10:06:11.995Z,6.12
2019-05-18T10:08:45.501Z,6.20
2019-05-18T10:11:19.553Z,5.80
2019-05-18T10:13:52.711Z,6.30
2019-05-18T10:16:26.296Z,5.87
2019-05-18T10:19:00.390Z,5.65
2019-05-18T10:21:34.513Z,5.67
2019-05-18T10:24:07.364Z,5.15
2019-05-18T10:26:41.204Z,5.97
2019-05-18T10:29:15.498Z,5.90
2019-05-18T10:31:49.499Z,5.78
2019-05-18T10:34:23.168Z,5.30
2019-05-18T10:36:56.816Z,5.92
2019-05-18T10:39:29.857Z,5.70
2019-05-18T10:42:02.742Z,5.42
2019-05-18T10:44:35.853Z,6.20
2019-05-18T10:47:08.667Z,6.12
2019-05-18T10:49:42.430Z,6.12
2019-05-18T10:52:16.073Z,5.65
2019-05-18T10:54:49.281Z,6.33
2019-05-18T10:57:23.179Z,5.47
2019-05-18T10:59:56.881Z,6.20
2019-05-18T11:02:30.317Z,5.58
2019-05-18T11:05:03.981Z,6.28
2019-05-18T11:07:37.205Z,6.08
2019-05-18T11:10:11.247Z,5.33
2019-05-18T11:12:44.167Z,5.67
2019-05-18T11:15:18.673Z,5.17
2019-05-18T11:17:52.307Z,5.83
2019-05-18T11:20:26.294Z,5.28
2019-05-18T11:22:59.934Z,5.55
2019-05-18T11:25:34.021Z,5.12
2019-05-18T11:28:07.696Z,5.12
2019-05-18T11:30:40.456Z,5.00
2019-05-18T11:33:14.205Z,5.45
2019-05-18T11:35:47.237Z,5.42
2019-05-18T11:38:21.034Z,5.55
2019-05-18T11:40:54.774Z,5.80
2019-05-18T11:43:29.020Z,5.25
2019-05-18T11:46:02.965Z,4.97
2019-05-18T11:48:36.722Z,5.42
2019-05-18T11:51:11.016Z,5.60
2019-05-18T11:53:57.208Z,5.05
2019-05-18T11:56:19.801Z,5.55
2019-05-18T11:58:53.892Z,5.10
2019-05-18T12:01:27.235Z,5.10
2019-05-18T12:04:00.901Z,5.15
2019-05-18T12:06:35.136Z,5.60
2019-05-18T12:09:08.662Z,5.17
2019-05-18T12:11:42.461Z,4.70
2019-05-18T12:14:21.346Z,5.28
2019-05-18T12:16:54.651Z,4.70
2019-05-18T12:19:28.384Z,4.92
2019-05-18T12:22:01.981Z,4.80
2019-05-18T12:24:51.874Z,4.65
2019-05-18T12:27:28.735Z,4.30
2019-05-18T12:30:02.018Z,4.60
2019-05-18T12:32:35.782Z,4.37
2019-05-18T12:35:08.659Z,4.80
2019-05-18T12:37:42.500Z,4.67
2019-05-18T12:40:18.705Z,4.50
2019-05-18T12:42:52.036Z,4.50
2019-05-18T12:45:26.319Z,4.40
2019-05-18T12:47:59.496Z,3.98
2019-05-18T12:50:32.356Z,4.78
2019-05-18T12:53:06.478Z,4.75
2019-05-18T12:55:40.186Z,4.80
2019-05-18T12:58:13.982Z,4.80
2019-05-18T13:00:45.999Z,4.47
2019-05-18T13:03:18.750Z,4.85
2019-05-18T13:05:51.255Z,4.58
2019-05-18T13:08:24.121Z,4.67
2019-05-18T13:10:56.591Z,4.95
2019-05-18T13:13:29.558Z,4.62
2019-05-18T13:16:02.142Z,4.83
2019-05-18T13:18:34.944Z,4.72
2019-05-18T13:21:07.442Z,4.78
2019-05-18T13:23:39.893Z,4.80
2019-05-18T13:26:11.900Z,5.10
2019-05-18T13:28:45.666Z,4.65
2019-05-18T13:31:18.373Z,4.30
2019-05-18T13:33:51.237Z,4.17
2019-05-18T13:36:23.955Z,4.42
2019-05-18T13:38:57.302Z,4.00
2019-05-18T13:41:29.753Z,4.28
2019-05-18T13:44:02.704Z,3.85
2019-05-18T13:46:35.607Z,3.95
2019-05-18T13:49:08.439Z,4.15
2019-05-18T13:51:41.583Z,4.12
2019-05-18T13:54:14.531Z,3.95
2019-05-18T13:56:48.019Z,3.95
2019-05-18T13:59:20.005Z,4.00
2019-05-18T14:01:55.043Z,3.95
2019-05-18T14:04:27.897Z,3.77
2019-05-18T14:07:00.412Z,3.77
2019-05-18T14:09:33.538Z,3.42
2019-05-18T14:12:06.477Z,3.55
2019-05-18T14:14:40.743Z,4.10
2019-05-18T14:17:13.813Z,3.47
2019-05-18T14:19:47.140Z,3.87
2019-05-18T14:22:20.224Z,3.22
2019-05-18T14:24:54.176Z,3.42
2019-05-18T14:27:26.577Z,3.40
2019-05-18T14:29:59.376Z,3.47
2019-05-18T14:32:32.170Z,3.55
2019-05-18T14:35:05.025Z,3.52
2019-05-18T14:37:38.045Z,3.60
2019-05-18T14:40:11.202Z,3.47
2019-05-18T14:42:43.635Z,3.77
2019-05-18T14:45:17.085Z,3.62
2019-05-18T14:47:49.082Z,4.03
2019-05-18T14:50:22.291Z,3.60
2019-05-18T14:52:55.239Z,3.65
2019-05-18T14:55:33.877Z,3.52
2019-05-18T14:58:02.743Z,4.08
2019-05-18T15:00:35.870Z,3.67
2019-05-18T15:03:08.359Z,3.87
2019-05-18T15:05:41.720Z,3.85
2019-05-18T15:08:15.604Z,4.10
2019-05-18T15:10:48.397Z,3.85
2019-05-18T15:13:20.821Z,4.12
2019-05-18T15:15:53.862Z,3.98
2019-05-18T15:18:26.270Z,4.08
2019-05-18T15:20:59.511Z,5.80
2019-05-18T15:23:32.830Z,3.98
2019-05-18T15:26:06.699Z,3.80
2019-05-18T15:28:39.933Z,3.70
2019-05-18T15:31:11.921Z,3.62
2019-05-18T15:33:45.074Z,4.03
2019-05-18T15:36:18.223Z,4.33
2019-05-18T15:38:51.107Z,4.08
2019-05-18T15:41:25.372Z,4.08
2019-05-18T15:43:59.138Z,4.00
2019-05-18T15:46:32.767Z,4.05
2019-05-18T15:49:05.678Z,3.83
2019-05-18T15:51:38.973Z,3.58
2019-05-18T15:54:13.057Z,3.95
2019-05-18T15:56:46.800Z,3.98
2019-05-18T15:59:20.098Z,3.58
2019-05-18T16:01:53.438Z,3.95
2019-05-18T16:04:26.804Z,3.87
2019-05-18T16:07:00.529Z,3.77
2019-05-18T16:09:34.436Z,3.95
2019-05-18T16:12:08.197Z,3.95
2019-05-18T16:14:41.507Z,4.00
2019-05-18T16:17:14.770Z,3.42
2019-05-18T16:19:47.592Z,3.70
2019-05-18T16:22:21.370Z,4.17
2019-05-18T16:24:55.662Z,4.00
2019-05-18T16:27:29.567Z,3.70
2019-05-18T16:30:02.887Z,4.08
2019-05-18T16:32:36.996Z,3.85
2019-05-18T16:35:11.551Z,4.05
2019-05-18T16:37:44.796Z,3.90
2019-05-18T16:40:18.485Z,3.67
2019-05-18T16:42:52.366Z,3.90
2019-05-18T16:45:25.778Z,4.10
2019-05-18T16:47:59.495Z,4.33
2019-05-18T16:50:33.561Z,6.42
2019-05-18T16:53:06.866Z,6.10
2019-05-18T16:55:40.667Z,5.95
2019-05-18T16:58:14.408Z,5.78
2019-05-18T17:00:49.463Z,5.42
2019-05-18T17:03:23.193Z,5.42
2019-05-18T17:05:55.950Z,4.90
2019-05-18T17:08:29.319Z,5.03
2019-05-18T17:11:02.620Z,4.97
2019-05-18T17:13:35.427Z,4.90
2019-05-18T17:16:08.849Z,4.42
2019-05-18T17:18:41.767Z,4.80
2019-05-18T17:21:15.981Z,4.90
2019-05-18T17:23:49.547Z,5.20
2019-05-18T17:26:23.772Z,5.53
2019-05-18T17:28:57.015Z,5.58
2019-05-18T17:31:31.150Z,5.20
2019-05-18T17:34:05.498Z,5.05
2019-05-18T17:36:39.188Z,5.67
2019-05-18T17:39:11.869Z,5.72
2019-05-18T17:41:45.776Z,5.78
2019-05-18T17:44:19.877Z,5.67
2019-05-18T17:46:53.540Z,6.22
2019-05-18T17:49:27.594Z,6.87
2019-05-18T17:52:00.862Z,7.80
2019-05-18T17:54:34.795Z,6.55
2019-05-18T17:57:09.334Z,6.40
2019-05-18T17:59:43.908Z,5.45
2019-05-18T18:02:17.106Z,5.40
2019-05-18T18:04:54.081Z,6.30
2019-05-18T18:07:25.516Z,7.45
2019-05-18T18:09:58.846Z,7.70
2019-05-18T18:12:32.486Z,8.45
2019-05-18T18:15:06.524Z,9.03
2019-05-18T18:17:39.844Z,9.05
2019-05-18T18:20:14.835Z,8.48
2019-05-18T18:22:48.555Z,8.98
2019-05-18T18:25:22.364Z,10.48
2019-05-18T18:27:55.633Z,9.33
2019-05-18T18:30:28.121Z,10.15
2019-05-18T18:33:02.331Z,9.58
2019-05-18T18:35:43.710Z,8.95
2019-05-18T18:38:17.930Z,9.80
2019-05-18T18:40:51.736Z,9.28
2019-05-18T18:43:28.230Z,10.28
2019-05-18T18:46:01.458Z,10.03
2019-05-18T18:48:34.821Z,10.00
2019-05-18T18:51:09.008Z,9.65
2019-05-18T18:53:42.710Z,10.53
2019-05-18T18:56:16.465Z,10.58
2019-05-18T18:58:50.095Z,11.25
2019-05-18T19:01:23.403Z,12.70
2019-05-18T19:03:57.072Z,17.30
2019-05-18T19:06:30.026Z,15.10
2019-05-18T19:09:03.481Z,15.88
2019-05-18T19:11:36.793Z,16.93
2019-05-18T19:14:10.638Z,20.27
2019-05-18T19:16:43.403Z,18.27
2019-05-18T19:19:16.653Z,18.98
2019-05-18T19:21:50.501Z,17.80
2019-05-18T19:24:23.759Z,21.07
2019-05-18T19:26:57.502Z,22.52
2019-05-18T19:29:30.267Z,22.00
2019-05-18T19:32:03.635Z,18.80
2019-05-18T19:34:37.346Z,19.95
2019-05-18T19:37:10.977Z,23.25
2019-05-18T19:39:44.802Z,23.45
2019-05-18T19:42:18.536Z,20.23
2019-05-18T19:44:51.849Z,20.35
2019-05-18T19:47:25.674Z,20.82
2019-05-18T19:49:59.514Z,27.13
2019-05-18T19:52:33.252Z,26.70
2019-05-18T19:55:07.059Z,24.55
2019-05-18T19:57:40.366Z,23.75
2019-05-18T20:00:15.660Z,22.70
2019-05-18T20:02:49.347Z,23.55
2019-05-18T20:05:25.514Z,23.47
2019-05-18T20:07:58.366Z,24.15
2019-05-18T20:10:30.877Z,22.95
2019-05-18T20:13:03.784Z,23.18
2019-05-18T20:15:36.203Z,22.42
2019-05-18T20:18:08.743Z,22.42
2019-05-18T20:20:42.369Z,20.80
2019-05-18T20:23:14.440Z,19.85
2019-05-18T20:25:46.405Z,19.98
2019-05-18T20:28:23.668Z,20.08
2019-05-18T20:30:54.329Z,16.32
2019-05-18T20:33:27.656Z,16.62
2019-05-18T20:36:00.402Z,14.58
2019-05-18T20:38:33.789Z,14.73
2019-05-18T20:41:06.700Z,15.98
2019-05-18T20:43:40.341Z,16.40
2019-05-18T20:46:13.576Z,15.20
2019-05-18T20:48:46.995Z,16.23
2019-05-18T20:51:20.328Z,16.77
2019-05-18T20:53:52.379Z,14.87
2019-05-18T20:56:24.916Z,15.48
2019-05-18T20:58:58.373Z,16.00
2019-05-18T21:01:32.450Z,14.58
2019-05-18T21:04:06.155Z,14.30
2019-05-18T21:06:39.119Z,12.82
2019-05-18T21:09:11.937Z,11.08
2019-05-18T21:11:45.653Z,11.00
2019-05-18T21:14:19.551Z,11.70
2019-05-18T21:16:52.308Z,11.68
2019-05-18T21:19:24.781Z,11.40
2019-05-18T21:21:58.629Z,10.82
2019-05-18T21:24:32.823Z,12.98
2019-05-18T21:27:06.403Z,13.60
2019-05-18T21:29:40.233Z,11.60
2019-05-18T21:32:14.241Z,10.70
2019-05-18T21:34:48.071Z,10.32
2019-05-18T21:37:21.254Z,9.43
2019-05-18T21:39:54.664Z,9.15
2019-05-18T21:42:28.155Z,9.03
2019-05-18T21:45:02.060Z,7.95
2019-05-18T21:47:36.152Z,7.45
2019-05-18T21:50:09.385Z,6.90
2019-05-18T21:52:42.656Z,6.67
2019-05-18T21:55:17.188Z,6.10
2019-05-18T21:57:49.920Z,5.80
2019-05-18T22:00:24.821Z,5.95
2019-05-18T22:02:58.033Z,5.60
2019-05-18T22:05:31.776Z,5.17
2019-05-18T22:08:05.109Z,4.97
2019-05-18T22:10:37.948Z,5.00
2019-05-18T22:13:11.670Z,5.05
2019-05-18T22:15:45.460Z,4.60
2019-05-18T22:18:24.687Z,4.20
2019-05-18T22:20:53.671Z,4.80
2019-05-18T22:23:26.976Z,4.17
2019-05-18T22:26:00.292Z,4.30
2019-05-18T22:28:33.488Z,4.58
2019-05-18T22:31:06.744Z,3.60
2019-05-18T22:33:40.016Z,4.25
2019-05-18T22:36:13.824Z,4.37
2019-05-18T22:38:47.074Z,3.62
2019-05-18T22:41:20.339Z,3.92
2019-05-18T22:43:53.161Z,3.98
2019-05-18T22:46:26.815Z,4.12
2019-05-18T22:49:00.579Z,3.95
2019-05-18T22:51:34.861Z,4.30
2019-05-18T22:54:08.469Z,4.25
2019-05-18T22:56:41.752Z,3.67
2019-05-18T22:59:14.628Z,3.75
2019-05-18T23:01:47.838Z,3.45
2019-05-18T23:04:21.552Z,3.30
2019-05-18T23:06:54.926Z,3.40
2019-05-18T23:09:29.077Z,2.87
2019-05-18T23:12:03.269Z,2.30
2019-05-18T23:14:37.014Z,3.15
2019-05-18T23:17:10.188Z,2.40
2019-05-18T23:19:43.145Z,2.30
2019-05-18T23:22:16.782Z,2.20
2019-05-18T23:24:50.993Z,2.05
2019-05-18T23:27:24.247Z,2.17
2019-05-18T23:29:57.102Z,2.22
2019-05-18T23:32:30.877Z,2.00
2019-05-18T23:35:04.227Z,2.27
2019-05-18T23:37:37.426Z,2.05
2019-05-18T23:40:11.313Z,2.17
2019-05-18T23:42:44.958Z,2.10
2019-05-18T23:45:18.781Z,2.10
2019-05-18T23:47:51.617Z,2.42
2019-05-18T23:50:25.355Z,2.33
2019-05-18T23:52:58.951Z,2.60
2019-05-18T23:55:33.146Z,2.52
2019-05-18T23:58:06.956Z,2.62
